Time;durP1;ratioP1;P1;durP2;ratioP2;P2;SDS_P1;SDS_P2;PMS_P1;PMS_P2;Temp;Humidity;BMP_temperature;BMP_pressure;BME280_temperature;BME280_humidity;BME280_pressure;Samples;Min_cycle;Max_cycle;Signal;HPM_P1;HPM_P2
2024/01/11 00:01:58;;;;;;;30.40;13.25;;;;;;;-2.73;67.70;103116.50;5080413;28;20028;-73
2024/01/11 00:04:23;;;;;;;27.58;14.35;;;;;;;-2.72;67.69;103111.41;5078771;28;20407;-72
2024/01/11 00:06:50;;;;;;;32.03;14.93;;;;;;;-2.77;67.72;103112.88;5082394;28;20059;-73
2024/01/11 00:09:15;;;;;;;31.17;13.85;;;;;;;-2.81;66.77;103118.69;5078855;28;20403;-72
2024/01/11 00:11:41;;;;;;;29.15;14.27;;;;;;;-2.89;68.38;103114.81;5080962;28;20027;-72
2024/01/11 00:14:06;;;;;;;29.40;13.85;;;;;;;-2.84;68.53;103123.75;5085394;28;20455;-73
2024/01/11 00:16:32;;;;;;;33.67;14.48;;;;;;;-2.82;68.38;103114.34;5084797;28;20414;-72
2024/01/11 00:18:57;;;;;;;30.10;13.90;;;;;;;-2.75;68.96;103119.03;5079677;28;20372;-72
2024/01/11 00:21:22;;;;;;;32.72;14.57;;;;;;;-2.71;67.73;103120.03;5079880;28;20390;-72
2024/01/11 00:23:49;;;;;;;32.15;15.27;;;;;;;-2.69;68.07;103121.91;5080620;28;20032;-72
2024/01/11 00:26:14;;;;;;;27.55;14.20;;;;;;;-2.67;68.90;103125.47;5083904;28;20040;-72
2024/01/11 00:28:39;;;;;;;30.92;14.88;;;;;;;-2.65;68.90;103126.44;5083592;28;20040;-72
2024/01/11 00:31:05;;;;;;;31.33;14.82;;;;;;;-2.61;68.53;103114.56;5079636;28;20028;-72
2024/01/11 00:33:30;;;;;;;27.42;13.88;;;;;;;-2.65;68.21;103115.22;5076343;28;20035;-72
2024/01/11 00:35:56;;;;;;;30.02;14.30;;;;;;;-2.59;68.64;103115.50;5078165;28;20028;-72
2024/01/11 00:38:21;;;;;;;29.83;14.10;;;;;;;-2.60;68.71;103116.31;5079948;28;20028;-72
2024/01/11 00:40:47;;;;;;;29.00;14.30;;;;;;;-2.65;68.28;103126.44;5080210;28;20040;-72
2024/01/11 00:43:12;;;;;;;30.85;14.13;;;;;;;-2.62;67.98;103116.22;5074966;28;20028;-72
2024/01/11 00:45:38;;;;;;;29.83;14.45;;;;;;;-2.69;68.16;103119.34;5079193;28;20020;-72
2024/01/11 00:48:03;;;;;;;34.03;15.82;;;;;;;-2.75;68.98;103115.53;5076391;28;20051;-72
2024/01/11 00:50:29;;;;;;;27.50;14.13;;;;;;;-2.76;69.23;103124.09;5057946;28;20638;-72
2024/01/11 00:52:54;;;;;;;29.73;14.60;;;;;;;-2.75;68.99;103119.03;5075342;28;20044;-72
2024/01/11 00:55:19;;;;;;;28.80;13.80;;;;;;;-2.69;68.36;103116.75;5076594;28;20028;-73
2024/01/11 00:57:45;;;;;;;30.40;15.55;;;;;;;-2.67;68.37;103114.22;5079106;28;20020;-72
2024/01/11 01:00:13;;;;;;;32.85;15.27;;;;;;;-2.68;68.21;103115.03;5076550;28;21966;-72
2024/01/11 01:02:39;;;;;;;33.65;14.75;;;;;;;-2.68;68.03;103115.03;5080800;28;20034;-72
2024/01/11 01:05:05;;;;;;;27.67;13.80;;;;;;;-2.69;67.97;103118.44;5075483;28;20116;-72
2024/01/11 01:07:30;;;;;;;32.72;14.88;;;;;;;-2.68;68.48;103121.09;5076072;28;20031;-70
2024/01/11 01:09:55;;;;;;;30.38;14.25;;;;;;;-2.69;68.44;103115.84;5080171;28;20689;-70
2024/01/11 01:12:20;;;;;;;38.00;16.58;;;;;;;-2.67;68.17;103122.88;5083688;28;20037;-70
2024/01/11 01:14:46;;;;;;;30.02;14.07;;;;;;;-2.69;68.09;103121.91;5074770;28;20024;-70
2024/01/11 01:17:11;;;;;;;29.83;15.45;;;;;;;-2.71;68.26;103130.41;5074245;28;20030;-69
2024/01/11 01:19:36;;;;;;;36.20;15.73;;;;;;;-2.69;68.95;103131.38;5073717;28;20028;-70
2024/01/11 01:22:02;;;;;;;32.92;14.73;;;;;;;-2.70;67.98;103140.88;5074732;28;20027;-70
2024/01/11 01:24:27;;;;;;;29.08;15.52;;;;;;;-2.72;67.91;103144.16;5074415;28;20082;-69
2024/01/11 01:26:52;;;;;;;27.98;14.80;;;;;;;-2.78;68.47;103141.28;5081496;28;20468;-70
2024/01/11 01:29:18;;;;;;;33.08;16.27;;;;;;;-2.69;68.53;103137.44;5079363;28;20020;-70
2024/01/11 01:31:43;;;;;;;32.08;15.68;;;;;;;-2.71;68.58;103138.16;5076099;28;20463;-70
2024/01/11 01:34:08;;;;;;;30.20;15.02;;;;;;;-2.68;68.60;103140.94;5079479;28;20035;-69
2024/01/11 01:36:34;;;;;;;36.25;15.05;;;;;;;-2.70;68.69;103147.75;5072940;28;20016;-72
2024/01/11 01:38:59;;;;;;;33.75;14.20;;;;;;;-2.75;69.16;103152.69;5074835;28;20367;-72
2024/01/11 01:41:24;;;;;;;29.90;14.32;;;;;;;-2.75;67.99;103149.19;5086025;28;20387;-72
2024/01/11 01:43:49;;;;;;;32.70;14.95;;;;;;;-2.82;67.97;103150.56;5079675;28;20020;-72
2024/01/11 01:46:21;;;;;;;31.55;14.98;;;;;;;-2.79;68.04;103153.34;5072788;28;20540;-72
2024/01/11 01:48:46;;;;;;;28.57;13.80;;;;;;;-2.78;67.53;103149.03;5072971;28;20035;-72
2024/01/11 01:51:12;;;;;;;34.83;15.70;;;;;;;-2.85;67.53;103153.00;5077367;28;20035;-72
2024/01/11 01:53:37;;;;;;;27.23;13.18;;;;;;;-2.94;67.95;103158.59;5076431;28;20016;-72
2024/01/11 01:56:03;;;;;;;28.77;13.95;;;;;;;-2.98;68.34;103161.84;5077615;28;20035;-72
2024/01/11 01:58:29;;;;;;;29.35;14.48;;;;;;;-2.98;68.67;103169.59;5073996;28;20422;-73
2024/01/11 02:00:55;;;;;;;33.50;14.70;;;;;;;-2.99;68.07;103166.91;5077865;28;20032;-72
2024/01/11 02:03:20;;;;;;;30.02;14.48;;;;;;;-2.99;68.79;103177.25;5080090;28;20089;-72
2024/01/11 02:05:46;;;;;;;33.65;13.77;;;;;;;-3.10;68.29;103172.41;5077950;28;20399;-72
2024/01/11 02:08:17;;;;;;;30.70;13.93;;;;;;;-3.10;68.20;103166.34;5077536;28;20024;-72
2024/01/11 02:10:42;;;;;;;31.83;14.52;;;;;;;-3.11;68.58;103154.22;5078129;28;20376;-72
2024/01/11 02:13:08;;;;;;;28.17;13.45;;;;;;;-3.06;68.97;103146.72;5075282;28;20318;-73
2024/01/11 02:15:33;;;;;;;33.50;14.60;;;;;;;-3.05;69.06;103148.47;5079645;28;20032;-73
2024/01/11 02:17:58;;;;;;;30.98;14.15;;;;;;;-3.06;69.25;103150.19;5078614;28;20114;-73
2024/01/11 02:20:24;;;;;;;27.65;13.55;;;;;;;-3.17;69.09;103153.88;5076277;28;20476;-73
2024/01/11 02:22:56;;;;;;;30.40;14.63;;;;;;;-3.22;68.26;103145.88;5076933;28;20048;-73
2024/01/11 02:25:21;;;;;;;30.40;13.88;;;;;;;-3.28;67.87;103147.25;5079371;28;20052;-73
2024/01/11 02:27:50;;;;;;;28.27;13.38;;;;;;;-3.41;68.52;103153.47;5072635;28;20487;-73
2024/01/11 02:30:16;;;;;;;27.58;13.35;;;;;;;-3.46;69.13;103160.09;5074531;28;20495;-73
2024/01/11 02:32:47;;;;;;;30.92;13.57;;;;;;;-3.51;69.06;103170.19;5077810;28;20069;-73
2024/01/11 02:35:14;;;;;;;31.95;14.63;;;;;;;-3.55;69.17;103169.94;5070611;28;20519;-72
2024/01/11 02:37:39;;;;;;;28.95;14.25;;;;;;;-3.48;69.16;103175.53;5072870;28;20024;-70
2024/01/11 02:40:08;;;;;;;30.20;14.15;;;;;;;-3.47;69.55;103159.19;5054455;28;20032;-70
2024/01/11 02:42:33;;;;;;;33.10;15.00;;;;;;;-3.46;69.15;103166.16;5075891;28;20032;-70
2024/01/11 02:44:59;;;;;;;33.65;14.77;;;;;;;-3.49;69.88;103162.53;5077977;28;20082;-70
2024/01/11 02:47:24;;;;;;;32.53;15.93;;;;;;;-3.51;69.50;103162.41;5085124;28;20789;-73
2024/01/11 02:49:49;;;;;;;33.90;16.02;;;;;;;-3.51;69.56;103161.53;5082720;28;20056;-73
2024/01/11 02:52:15;;;;;;;38.72;15.80;;;;;;;-3.52;69.45;103160.66;5083620;28;20055;-72
2024/01/11 02:54:40;;;;;;;30.40;15.00;;;;;;;-3.49;69.36;103163.41;5083105;28;20025;-72
2024/01/11 02:57:05;;;;;;;34.00;15.48;;;;;;;-3.51;69.31;103165.00;5087485;28;20039;-72
2024/01/11 02:59:31;;;;;;;34.92;15.98;;;;;;;-3.48;68.98;103162.59;5075932;28;20028;-72
2024/01/11 03:01:56;;;;;;;32.13;14.90;;;;;;;-3.48;69.64;103161.72;5083088;28;20077;-72
2024/01/11 03:04:21;;;;;;;30.73;14.85;;;;;;;-3.46;69.39;103168.72;5077396;28;20044;-72
2024/01/11 03:06:47;;;;;;;30.85;14.55;;;;;;;-3.48;69.35;103169.47;5082791;28;20038;-72
2024/01/11 03:09:12;;;;;;;31.10;15.60;;;;;;;-3.54;68.64;103158.78;5080946;28;20063;-72
2024/01/11 03:11:37;;;;;;;33.13;14.48;;;;;;;-3.60;68.62;103159.34;5076705;28;20380;-72
2024/01/11 03:14:03;;;;;;;32.97;15.32;;;;;;;-3.67;68.98;103158.13;5078831;28;20032;-72
2024/01/11 03:16:28;;;;;;;32.05;15.57;;;;;;;-3.68;69.23;103169.28;5079342;28;20028;-72
2024/01/11 03:18:53;;;;;;;30.55;14.32;;;;;;;-3.72;69.62;103162.16;5074918;28;20123;-72
2024/01/11 03:21:19;;;;;;;33.78;15.40;;;;;;;-3.74;69.43;103163.75;5082765;28;20095;-72
2024/01/11 03:23:44;;;;;;;33.25;14.52;;;;;;;-3.82;69.50;103158.94;5083938;28;20020;-72
2024/01/11 03:26:17;;;;;;;32.05;14.95;;;;;;;-3.75;69.21;103155.91;5080055;28;20060;-72
2024/01/11 03:28:43;;;;;;;33.47;15.73;;;;;;;-3.69;68.96;103159.72;5082267;28;20116;-72
2024/01/11 03:31:09;;;;;;;27.45;13.30;;;;;;;-3.72;68.94;103158.66;5082444;28;20026;-72
2024/01/11 03:33:34;;;;;;;29.80;14.30;;;;;;;-3.74;68.84;103163.75;5076957;28;20072;-72
2024/01/11 03:36:05;;;;;;;36.15;15.40;;;;;;;-3.83;68.76;103167.50;5078998;28;20024;-72
2024/01/11 03:38:31;;;;;;;35.83;15.32;;;;;;;-3.94;69.93;103159.16;5075070;28;20067;-72
2024/01/11 03:40:56;;;;;;;30.52;15.23;;;;;;;-3.86;70.37;103165.66;5077599;28;20059;-72
2024/01/11 03:43:21;;;;;;;30.10;14.55;;;;;;;-3.88;70.06;103154.31;5076088;28;20027;-72
2024/01/11 03:45:46;;;;;;;30.13;14.40;;;;;;;-3.88;70.30;103149.16;5076550;28;20086;-72
2024/01/11 03:48:12;;;;;;;36.35;14.48;;;;;;;-3.89;69.76;103155.13;5078368;28;20424;-72
2024/01/11 03:50:37;;;;;;;28.08;12.52;;;;;;;-3.91;69.66;103156.75;5077521;28;20035;-72
2024/01/11 03:53:04;;;;;;;30.90;13.57;;;;;;;-3.91;69.47;103161.94;5077379;28;20028;-72
2024/01/11 03:55:29;;;;;;;32.03;15.15;;;;;;;-3.95;69.55;103166.03;5082908;28;20028;-72
2024/01/11 03:57:54;;;;;;;34.00;14.85;;;;;;;-3.97;69.64;103166.72;5082153;28;20020;-69
2024/01/11 04:00:20;;;;;;;32.08;14.98;;;;;;;-3.99;69.86;103158.91;5081429;28;20391;-69
2024/01/11 04:02:45;;;;;;;23.70;13.18;;;;;;;-3.99;69.96;103161.47;5086171;28;20044;-69
2024/01/11 04:05:10;;;;;;;33.17;14.95;;;;;;;-4.04;69.79;103151.69;5083923;28;20024;-70
2024/01/11 04:07:36;;;;;;;30.17;13.40;;;;;;;-4.08;69.80;103145.47;5083843;28;20111;-69
2024/01/11 04:10:01;;;;;;;29.63;13.75;;;;;;;-4.09;69.68;103151.44;5080363;28;20040;-69
2024/01/11 04:12:26;;;;;;;30.48;13.25;;;;;;;-4.12;69.94;103169.34;5079234;28;20036;-69
2024/01/11 04:14:52;;;;;;;31.75;15.48;;;;;;;-4.20;69.22;103178.31;5078899;28;20020;-69
2024/01/11 04:17:17;;;;;;;27.67;13.05;;;;;;;-4.27;70.22;103192.59;5079452;28;20479;-69
2024/01/11 04:19:42;;;;;;;28.58;13.45;;;;;;;-4.31;69.82;103192.31;5082954;28;20103;-69
2024/01/11 04:22:07;;;;;;;28.85;12.75;;;;;;;-4.33;70.13;103192.25;5081623;28;20032;-69
2024/01/11 04:24:33;;;;;;;28.73;13.27;;;;;;;-4.30;70.63;103183.75;5080956;28;20034;-69
2024/01/11 04:26:58;;;;;;;30.00;13.82;;;;;;;-4.23;71.07;103191.97;5076325;28;20047;-69
2024/01/11 04:29:24;;;;;;;28.30;12.63;;;;;;;-4.22;70.65;103188.56;5081438;28;20042;-69
2024/01/11 04:31:49;;;;;;;27.92;13.05;;;;;;;-4.24;70.60;103192.78;5078662;28;20093;-69
2024/01/11 04:34:14;;;;;;;31.52;13.95;;;;;;;-4.23;70.25;103193.66;5081548;28;20469;-69
2024/01/11 04:36:40;;;;;;;29.63;13.00;;;;;;;-4.24;70.15;103203.09;5080598;28;20036;-69
2024/01/11 04:39:07;;;;;;;28.02;12.93;;;;;;;-4.25;70.20;103216.78;5078970;28;20012;-69
2024/01/11 04:41:35;;;;;;;22.75;11.60;;;;;;;-4.26;70.73;103214.13;5076401;28;20082;-69
2024/01/11 04:44:00;;;;;;;34.03;14.23;;;;;;;-4.28;70.39;103214.06;5083207;28;20028;-68
2024/01/11 04:46:25;;;;;;;29.13;14.18;;;;;;;-4.27;70.69;103204.63;5080575;28;20434;-69
2024/01/11 04:48:51;;;;;;;25.42;12.05;;;;;;;-4.25;70.40;103201.31;5082931;28;20115;-69
2024/01/11 04:51:18;;;;;;;27.95;12.15;;;;;;;-4.25;70.59;103203.88;5083391;28;20026;-69
2024/01/11 04:53:44;;;;;;;27.60;12.52;;;;;;;-4.32;71.46;103201.75;5061240;28;20125;-69
2024/01/11 04:56:11;;;;;;;23.83;12.18;;;;;;;-4.29;70.82;103201.97;5087637;28;20024;-68
2024/01/11 04:58:39;;;;;;;28.30;13.23;;;;;;;-4.27;71.32;103199.44;5083300;28;20024;-69
2024/01/11 05:01:05;;;;;;;27.08;12.98;;;;;;;-4.23;70.82;103202.31;5086918;28;20026;-69
2024/01/11 05:03:31;;;;;;;28.17;12.82;;;;;;;-4.20;71.01;103206.72;5081883;28;20028;-69
2024/01/11 05:05:57;;;;;;;27.30;12.45;;;;;;;-4.18;71.38;103205.16;5083346;28;20371;-69
2024/01/11 05:08:23;;;;;;;30.73;12.70;;;;;;;-4.22;71.53;103204.06;5080922;28;20114;-70
2024/01/11 05:10:49;;;;;;;27.65;12.95;;;;;;;-4.21;70.92;103220.47;5079152;28;20054;-70
2024/01/11 05:13:14;;;;;;;29.15;13.85;;;;;;;-4.23;70.89;103222.06;5076894;28;20107;-70
2024/01/11 05:15:39;;;;;;;29.95;12.70;;;;;;;-4.22;71.25;103219.56;5085551;28;20023;-71
2024/01/11 05:18:05;;;;;;;24.63;12.35;;;;;;;-4.23;70.62;103224.66;5075453;28;20066;-69
2024/01/11 05:20:30;;;;;;;24.30;12.60;;;;;;;-4.32;70.78;103217.25;5073982;28;20135;-69
2024/01/11 05:22:55;;;;;;;25.65;12.90;;;;;;;-4.36;71.57;103213.59;5081099;28;20026;-69
2024/01/11 05:25:21;;;;;;;31.42;13.40;;;;;;;-4.32;71.99;103221.53;5083430;28;20032;-68
2024/01/11 05:27:46;;;;;;;25.70;12.93;;;;;;;-4.29;71.50;103221.69;5071928;28;20066;-69
2024/01/11 05:30:12;;;;;;;26.58;13.40;;;;;;;-4.32;71.27;103232.75;5083555;28;20048;-68
2024/01/11 05:32:37;;;;;;;25.58;12.32;;;;;;;-4.40;70.67;103232.28;5084445;28;20038;-69
2024/01/11 05:35:03;;;;;;;27.38;12.93;;;;;;;-4.52;70.72;103236.75;5089564;28;20564;-69
2024/01/11 05:37:28;;;;;;;25.02;12.63;;;;;;;-4.62;70.95;103237.88;5079752;28;20054;-69
2024/01/11 05:39:56;;;;;;;26.80;13.02;;;;;;;-4.68;71.85;103252.06;5075088;28;20059;-68
2024/01/11 05:42:22;;;;;;;26.85;12.52;;;;;;;-4.68;71.95;103258.13;5077908;28;20075;-68
2024/01/11 05:44:47;;;;;;;30.70;13.23;;;;;;;-4.69;71.86;103265.78;5077712;28;20064;-68
2024/01/11 05:47:13;;;;;;;32.55;13.38;;;;;;;-4.70;71.82;103251.09;5084541;28;20461;-68
2024/01/11 05:49:38;;;;;;;24.75;12.32;;;;;;;-4.72;72.32;103232.94;5081622;28;20036;-69
2024/01/11 05:52:04;;;;;;;24.15;12.82;;;;;;;-4.68;72.43;103240.06;5074168;28;20024;-68
2024/01/11 05:54:29;;;;;;;23.63;11.50;;;;;;;-4.64;72.28;103230.81;5075632;28;20119;-69
2024/01/11 05:56:59;;;;;;;26.52;12.90;;;;;;;-4.58;72.37;103243.19;5081232;28;20016;-68
2024/01/11 05:59:24;;;;;;;29.65;12.68;;;;;;;-4.58;72.23;103243.19;5082676;28;20319;-68
2024/01/11 06:01:50;;;;;;;27.23;12.35;;;;;;;-4.58;72.02;103245.78;5082805;28;20036;-68
2024/01/11 06:04:16;;;;;;;21.77;11.38;;;;;;;-4.56;72.44;103246.78;5074184;28;20031;-68
2024/01/11 06:06:41;;;;;;;26.60;12.00;;;;;;;-4.56;72.23;103252.84;5081768;28;20024;-68
2024/01/11 06:09:07;;;;;;;26.42;11.68;;;;;;;-4.56;72.61;103262.28;5075382;28;20058;-68
2024/01/11 06:11:32;;;;;;;27.98;12.38;;;;;;;-4.58;72.28;103264.75;5083998;28;20074;-68
2024/01/11 06:13:58;;;;;;;25.52;12.23;;;;;;;-4.62;72.25;103276.59;5096234;28;20364;-68
2024/01/11 06:16:23;;;;;;;27.88;12.27;;;;;;;-4.58;72.83;103269.00;5081204;28;20430;-69
2024/01/11 06:18:50;;;;;;;20.67;11.68;;;;;;;-4.62;72.58;103263.69;5085498;28;20467;-68
2024/01/11 06:21:16;;;;;;;29.20;13.40;;;;;;;-4.62;72.62;103263.69;5074612;28;20135;-68
2024/01/11 06:23:43;;;;;;;24.80;12.60;;;;;;;-4.58;72.76;103258.69;5080772;28;20023;-69
2024/01/11 06:26:08;;;;;;;29.25;12.98;;;;;;;-4.60;72.86;103263.78;5081778;28;20036;-68
2024/01/11 06:28:34;;;;;;;25.67;11.90;;;;;;;-4.59;72.86;103270.69;5086204;28;20055;-70
2024/01/11 06:30:59;;;;;;;25.05;13.07;;;;;;;-4.56;72.74;103273.47;5078298;28;20023;-70
2024/01/11 06:33:24;;;;;;;25.50;12.65;;;;;;;-4.55;72.72;103266.63;5084759;28;20047;-70
2024/01/11 06:35:50;;;;;;;28.25;13.50;;;;;;;-4.56;72.59;103263.16;5076266;28;20016;-70
2024/01/11 06:38:15;;;;;;;25.10;11.30;;;;;;;-4.59;72.92;103264.66;5077882;28;20118;-70
2024/01/11 06:40:41;;;;;;;25.38;12.10;;;;;;;-4.62;73.27;103262.75;5075225;28;20160;-70
2024/01/11 06:43:06;;;;;;;25.67;12.13;;;;;;;-4.70;72.77;103282.06;5066272;28;20539;-70
2024/01/11 06:45:31;;;;;;;25.88;12.80;;;;;;;-4.81;72.98;103283.97;5083676;28;20024;-70
2024/01/11 06:47:57;;;;;;;26.17;11.95;;;;;;;-4.82;73.15;103279.63;5075839;28;20024;-70
2024/01/11 06:50:22;;;;;;;27.70;12.10;;;;;;;-4.86;72.76;103277.63;5082187;28;20051;-70
2024/01/11 06:52:47;;;;;;;21.50;10.88;;;;;;;-4.93;72.81;103281.53;5085200;28;20491;-70
2024/01/11 06:55:13;;;;;;;25.52;11.38;;;;;;;-4.94;73.05;103277.19;5077498;28;20020;-70
2024/01/11 06:57:38;;;;;;;26.35;12.27;;;;;;;-4.93;73.24;103291.84;5081704;28;20439;-70
2024/01/11 07:00:04;;;;;;;29.55;12.55;;;;;;;-4.94;72.92;103294.34;5073369;28;20279;-70
2024/01/11 07:02:29;;;;;;;30.13;13.27;;;;;;;-4.95;73.06;103293.44;5081184;28;20480;-69
2024/01/11 07:04:55;;;;;;;26.33;11.98;;;;;;;-4.90;72.81;103301.47;5077104;28;20085;-70
2024/01/11 07:07:20;;;;;;;25.08;11.55;;;;;;;-4.94;73.02;103295.25;5085061;28;20122;-70
2024/01/11 07:09:45;;;;;;;22.48;11.60;;;;;;;-4.98;73.03;103300.13;5082098;28;20396;-70
2024/01/11 07:12:11;;;;;;;21.73;11.40;;;;;;;-5.01;73.01;103305.97;5075151;28;20505;-69
2024/01/11 07:14:36;;;;;;;20.88;11.60;;;;;;;-5.05;72.85;103321.13;5056659;28;20035;-70
2024/01/11 07:17:03;;;;;;;28.80;12.88;;;;;;;-5.15;73.19;103325.72;5080406;28;20044;-70
2024/01/11 07:19:29;;;;;;;28.23;13.15;;;;;;;-5.17;73.33;103319.59;5071097;28;20114;-70
2024/01/11 07:21:54;;;;;;;26.65;11.45;;;;;;;-5.18;73.84;103319.47;5062079;28;20036;-70
2024/01/11 07:24:20;;;;;;;23.45;12.18;;;;;;;-5.18;73.72;103317.78;5063877;28;20111;-69
2024/01/11 07:26:45;;;;;;;23.23;12.25;;;;;;;-5.17;73.70;103311.84;5080073;28;20081;-70
2024/01/11 07:29:10;;;;;;;26.75;11.45;;;;;;;-5.22;73.72;103320.09;5078480;28;20020;-68
2024/01/11 07:31:36;;;;;;;23.83;11.55;;;;;;;-5.22;73.49;103328.72;5081465;28;20517;-68
2024/01/11 07:34:01;;;;;;;23.73;11.23;;;;;;;-5.24;74.09;103317.38;5079240;28;20039;-68
2024/01/11 07:36:27;;;;;;;22.27;11.35;;;;;;;-5.16;73.92;103323.94;5080744;28;20031;-68
2024/01/11 07:38:53;;;;;;;23.83;11.80;;;;;;;-5.15;73.97;103312.81;5076975;28;20462;-68
2024/01/11 07:41:18;;;;;;;27.45;11.35;;;;;;;-5.11;74.10;103318.19;5088157;28;20035;-68
2024/01/11 07:43:43;;;;;;;24.15;10.32;;;;;;;-5.08;73.97;103310.63;5083586;28;20008;-68
2024/01/11 07:46:09;;;;;;;25.38;12.77;;;;;;;-5.06;74.08;103315.09;5086251;28;20099;-68
2024/01/11 07:48:34;;;;;;;25.40;12.40;;;;;;;-5.04;74.03;103316.06;5081434;28;20043;-68
2024/01/11 07:51:00;;;;;;;30.70;11.75;;;;;;;-5.06;73.74;103321.94;5067326;28;20035;-67
2024/01/11 07:53:28;;;;;;;21.60;10.90;;;;;;;-5.08;74.13;103326.09;5082540;28;20082;-67
2024/01/11 07:55:53;;;;;;;19.20;10.57;;;;;;;-5.06;74.08;103324.53;5082472;28;20028;-67
2024/01/11 07:58:20;;;;;;;20.05;11.63;;;;;;;-5.04;74.36;103323.81;5072165;28;20029;-68
2024/01/11 08:00:46;;;;;;;23.75;12.05;;;;;;;-4.98;74.21;103329.38;5080147;28;20111;-68
2024/01/11 08:03:12;;;;;;;26.40;10.88;;;;;;;-4.97;74.58;103309.63;5078610;28;20365;-68
2024/01/11 08:05:37;;;;;;;25.48;12.40;;;;;;;-4.85;74.40;103312.06;5082202;28;20084;-68
2024/01/11 08:08:03;;;;;;;25.70;12.38;;;;;;;-4.77;74.09;103314.34;5088449;28;20127;-68
2024/01/11 08:10:30;;;;;;;26.33;11.82;;;;;;;-4.69;74.38;103307.06;5075840;28;20044;-68
2024/01/11 08:12:55;;;;;;;31.80;14.05;;;;;;;-4.66;74.24;103300.41;5081667;28;20034;-68
2024/01/11 08:15:21;;;;;;;24.90;12.75;;;;;;;-4.63;73.90;103297.13;5081168;28;20020;-68
2024/01/11 08:17:47;;;;;;;26.70;12.70;;;;;;;-4.60;74.08;103301.59;5084737;28;20441;-69
2024/01/11 08:20:13;;;;;;;23.98;12.27;;;;;;;-4.55;74.91;103289.84;5084570;28;20023;-68
2024/01/11 08:22:43;;;;;;;29.25;12.65;;;;;;;-4.52;74.32;103283.19;5081491;28;20085;-68
2024/01/11 08:25:08;;;;;;;27.13;12.50;;;;;;;-4.33;73.88;103290.38;5080812;28;20032;-68
2024/01/11 08:27:34;;;;;;;27.02;13.18;;;;;;;-4.21;73.92;103293.66;5076132;28;20073;-67
2024/01/11 08:30:02;;;;;;;29.23;13.73;;;;;;;-4.03;73.43;103296.44;5081277;28;20023;-68
2024/01/11 08:32:28;;;;;;;34.10;14.93;;;;;;;-3.84;73.35;103298.41;5084698;28;20028;-68
2024/01/11 08:34:54;;;;;;;30.33;12.95;;;;;;;-3.57;73.00;103311.16;5080874;28;20036;-68
2024/01/11 08:37:19;;;;;;;27.63;12.57;;;;;;;-3.38;72.56;103313.97;5077402;28;20024;-68
2024/01/11 08:39:46;;;;;;;30.70;13.07;;;;;;;-3.02;72.12;103298.75;5079040;28;20024;-68
2024/01/11 08:42:11;;;;;;;24.58;12.88;;;;;;;-2.69;71.53;103292.78;5074780;28;20028;-68
2024/01/11 08:44:41;;;;;;;26.55;12.98;;;;;;;-1.97;70.76;103290.47;5081169;28;20017;-68
2024/01/11 08:47:06;;;;;;;32.58;14.40;;;;;;;-1.64;69.12;103292.13;5087462;28;20085;-68
2024/01/11 08:49:32;;;;;;;23.45;12.77;;;;;;;-1.31;69.78;103290.31;5083535;28;20492;-68
2024/01/11 08:51:58;;;;;;;23.67;13.50;;;;;;;-0.57;68.87;103292.00;5076475;28;20024;-68
2024/01/11 08:54:23;;;;;;;22.38;12.23;;;;;;;0.23;66.09;103301.56;5076588;28;20036;-68
2024/01/11 08:56:48;;;;;;;25.80;12.40;;;;;;;0.42;63.05;103312.72;5081117;28;20025;-68
2024/01/11 08:59:13;;;;;;;25.25;12.63;;;;;;;0.13;63.59;103315.00;5075450;28;20600;-68
2024/01/11 09:01:39;;;;;;;27.95;13.27;;;;;;;0.18;64.36;103318.66;5080166;28;20028;-68
2024/01/11 09:04:05;;;;;;;22.35;11.70;;;;;;;0.22;63.06;103319.69;5078513;28;20036;-68
2024/01/11 09:06:30;;;;;;;24.48;12.20;;;;;;;0.22;64.22;103325.78;5080315;28;20044;-68
2024/01/11 09:08:55;;;;;;;28.33;13.18;;;;;;;0.38;62.16;103319.53;5079601;28;20115;-68
2024/01/11 09:11:21;;;;;;;25.05;13.77;;;;;;;0.27;63.32;103325.97;5080190;28;20121;-68
2024/01/11 09:13:46;;;;;;;22.73;12.05;;;;;;;0.09;64.31;103323.47;5079352;28;20024;-68
2024/01/11 09:16:15;;;;;;;25.30;13.02;;;;;;;0.24;63.52;103333.69;5081092;28;20020;-68
2024/01/11 09:18:41;;;;;;;22.38;12.75;;;;;;;0.17;62.13;103334.22;5068946;28;20043;-69
2024/01/11 09:21:07;;;;;;;27.13;13.40;;;;;;;0.34;62.00;103329.75;5080294;28;20396;-68
2024/01/11 09:23:34;;;;;;;24.98;13.20;;;;;;;0.97;61.91;103334.06;5079801;28;20213;-68
2024/01/11 09:25:59;;;;;;;27.95;13.80;;;;;;;1.30;61.65;103341.41;5078934;28;20072;-68
2024/01/11 09:28:24;;;;;;;29.33;13.82;;;;;;;1.98;60.38;103334.34;5079558;28;20096;-69
2024/01/11 09:30:50;;;;;;;24.95;12.95;;;;;;;2.99;56.27;103342.97;5071800;28;20032;-68
2024/01/11 09:33:15;;;;;;;26.58;13.13;;;;;;;3.58;57.15;103342.13;5066957;28;20279;-69
2024/01/11 09:35:41;;;;;;;23.67;12.48;;;;;;;4.54;53.85;103346.47;5053006;28;20610;-69
2024/01/11 09:38:06;;;;;;;25.30;12.95;;;;;;;5.59;50.69;103349.72;5068641;28;20035;-69
2024/01/11 09:40:32;;;;;;;22.23;12.43;;;;;;;6.77;49.10;103360.72;5067534;28;20118;-69
2024/01/11 09:42:57;;;;;;;21.55;11.98;;;;;;;7.65;46.07;103353.19;5072825;28;20416;-69
2024/01/11 09:45:25;;;;;;;25.10;12.13;;;;;;;8.62;44.68;103362.13;5071210;28;20024;-69
2024/01/11 09:47:52;;;;;;;24.23;13.07;;;;;;;9.26;42.34;103369.63;5075697;28;20480;-70
2024/01/11 09:50:17;;;;;;;25.77;13.32;;;;;;;9.67;41.03;103360.16;5074415;28;20476;-69
2024/01/11 09:52:50;;;;;;;27.23;13.35;;;;;;;10.16;41.90;103365.56;5076658;28;20073;-70
2024/01/11 09:55:17;;;;;;;21.02;12.27;;;;;;;10.89;38.69;103350.66;5081239;28;20024;-70
2024/01/11 09:57:47;;;;;;;28.88;13.68;;;;;;;11.13;38.95;103357.69;5078952;28;20487;-70
2024/01/11 10:00:33;;;;;;;23.33;14.07;;;;;;;11.55;41.67;103369.91;5080013;28;20055;-70
2024/01/11 10:02:59;;;;;;;26.83;14.10;;;;;;;12.23;37.17;103363.41;5070344;28;20084;-71
2024/01/11 10:05:25;;;;;;;22.55;12.45;;;;;;;12.68;34.22;103360.41;5077363;28;20032;-71
2024/01/11 10:07:50;;;;;;;25.90;13.73;;;;;;;13.30;35.49;103364.28;5080497;28;20564;-70
2024/01/11 10:10:16;;;;;;;24.83;13.90;;;;;;;13.77;32.84;103365.47;5086417;28;20041;-71
2024/01/11 10:12:41;;;;;;;21.77;12.90;;;;;;;13.68;31.76;103371.78;5074147;28;20092;-71
2024/01/11 10:15:09;;;;;;;22.40;14.40;;;;;;;13.53;32.03;103366.66;5079282;28;20024;-71
2024/01/11 10:17:44;;;;;;;26.20;13.65;;;;;;;13.22;32.11;103367.00;5079073;28;20024;-71
2024/01/11 10:20:13;;;;;;;23.58;12.77;;;;;;;13.69;33.43;103376.19;5076486;28;20098;-71
2024/01/11 10:22:40;;;;;;;23.80;13.38;;;;;;;14.48;31.94;103374.22;5067938;28;20722;-71
2024/01/11 10:25:11;;;;;;;20.38;12.40;;;;;;;15.16;31.54;103373.94;5069286;28;20035;-71
2024/01/11 10:27:38;;;;;;;23.73;12.93;;;;;;;15.56;30.33;103371.34;5068181;28;20545;-71
2024/01/11 10:30:04;;;;;;;22.23;13.18;;;;;;;16.02;29.83;103372.16;5069663;28;21596;-74
2024/01/11 10:32:29;;;;;;;24.33;13.95;;;;;;;16.32;28.69;103376.81;5071482;28;20027;-74
2024/01/11 10:34:56;;;;;;;23.63;14.38;;;;;;;16.02;29.04;103381.03;5081502;28;20480;-74
2024/01/11 10:37:23;;;;;;;23.55;13.30;;;;;;;15.93;28.30;103377.72;5083688;28;20046;-74
2024/01/11 10:39:50;;;;;;;21.75;13.45;;;;;;;15.67;29.08;103384.50;5077520;28;20483;-74
2024/01/11 10:42:20;;;;;;;25.00;14.25;;;;;;;15.45;28.83;103385.81;5077114;28;20021;-74
2024/01/11 10:44:48;;;;;;;26.90;14.57;;;;;;;15.53;29.69;103378.53;5074442;28;20036;-74
2024/01/11 10:47:15;;;;;;;25.45;14.30;;;;;;;15.47;28.49;103376.84;5080604;28;20040;-74
2024/01/11 10:49:44;;;;;;;22.48;14.07;;;;;;;14.99;29.00;103376.00;5069067;28;20152;-73
2024/01/11 10:52:12;;;;;;;23.90;14.65;;;;;;;14.79;28.89;103376.38;5056590;28;20056;-73
2024/01/11 10:54:41;;;;;;;26.00;14.90;;;;;;;15.03;30.39;103370.59;5080472;28;20032;-73
2024/01/11 10:57:08;;;;;;;24.50;14.35;;;;;;;15.68;27.72;103364.91;5078500;28;21520;-73
2024/01/11 10:59:37;;;;;;;27.25;15.38;;;;;;;15.68;29.11;103359.56;5082955;28;20554;-70
2024/01/11 11:02:06;;;;;;;24.75;15.10;;;;;;;16.29;27.63;103368.00;5072573;28;20086;-70
2024/01/11 11:04:34;;;;;;;22.90;15.15;;;;;;;17.11;26.95;103366.81;5083781;28;20498;-70